Time;durP1;ratioP1;P1;durP2;ratioP2;P2;SDS_P1;SDS_P2;PMS_P1;PMS_P2;Temp;Humidity;BMP_temperature;BMP_pressure;BME280_temperature;BME280_humidity;BME280_pressure;Samples;Min_cycle;Max_cycle;Signal;HPM_P1;HPM_P2
2023/05/21 00:01:53;;;;;;;7.85;5.00;;;;;;;;;;5057795;28;20032;-76
2023/05/21 00:04:20;;;;;;;7.78;4.70;;;;;;;;;;5047271;28;20033;-76
2023/05/21 00:06:47;;;;;;;5.93;5.32;;;;;;;;;;5035675;28;20072;-76
2023/05/21 00:09:13;;;;;;;6.32;4.70;;;;;;;;;;5053755;28;20175;-76
2023/05/21 00:11:39;;;;;;;7.22;4.57;;;;;;;;;;5051558;28;20025;-76
2023/05/21 00:14:05;;;;;;;8.20;4.85;;;;;;;;;;5049465;28;20013;-76
2023/05/21 00:16:32;;;;;;;6.05;4.50;;;;;;;;;;5070101;28;20024;-76
2023/05/21 00:18:58;;;;;;;8.88;5.03;;;;;;;;;;5059130;28;20108;-76
2023/05/21 00:21:25;;;;;;;5.60;4.20;;;;;;;;;;5051703;28;20074;-76
2023/05/21 00:23:55;;;;;;;6.20;4.70;;;;;;;;;;5051159;28;20036;-76
2023/05/21 00:26:28;;;;;;;6.55;4.97;;;;;;;;;;5062811;28;20153;-76
2023/05/21 00:28:54;;;;;;;5.97;4.60;;;;;;;;;;5071319;28;20119;-76
2023/05/21 00:31:20;;;;;;;8.60;4.63;;;;;;;;;;5072618;28;20024;-76
2023/05/21 00:33:53;;;;;;;5.05;4.55;;;;;;;;;;5071366;28;20045;-76
2023/05/21 00:36:22;;;;;;;5.57;4.25;;;;;;;;;;5054944;28;20495;-76
2023/05/21 00:38:54;;;;;;;6.13;4.50;;;;;;;;;;5065809;28;20459;-76
2023/05/21 00:41:29;;;;;;;6.95;5.00;;;;;;;;;;5071928;28;20032;-76
2023/05/21 00:43:59;;;;;;;5.35;4.55;;;;;;;;;;5070799;28;20078;-76
2023/05/21 00:46:27;;;;;;;;;;;;;;;;;;5058004;28;20106;-76
2023/05/21 00:48:53;;;;;;;5.72;4.57;;;;;;;;;;5072660;28;19904;-76
2023/05/21 00:51:20;;;;;;;6.63;5.10;;;;;;;;;;5070853;28;20020;-76
2023/05/21 00:53:50;;;;;;;8.40;4.45;;;;;;;;;;5071251;28;20470;-76
2023/05/21 00:56:16;;;;;;;5.78;5.18;;;;;;;;;;5070885;28;20493;-76
2023/05/21 00:58:44;;;;;;;6.07;4.72;;;;;;;;;;5070680;28;20021;-76
2023/05/21 01:01:12;;;;;;;8.20;5.20;;;;;;;;;;5054166;28;20124;-76
2023/05/21 01:03:39;;;;;;;6.45;4.88;;;;;;;;;;5070958;28;20029;-76
2023/05/21 01:06:06;;;;;;;6.78;4.90;;;;;;;;;;5070949;28;20020;-76
2023/05/21 01:08:33;;;;;;;6.00;5.13;;;;;;;;;;5070582;28;20069;-76
2023/05/21 01:11:00;;;;;;;5.70;4.88;;;;;;;;;;5070590;28;20037;-76
2023/05/21 01:13:26;;;;;;;8.05;5.28;;;;;;;;;;5070972;28;20063;-76
2023/05/21 01:15:53;;;;;;;6.53;4.72;;;;;;;;;;5072146;28;20027;-76
2023/05/21 01:18:22;;;;;;;5.70;4.80;;;;;;;;;;5074103;28;20075;-76
2023/05/21 01:20:49;;;;;;;7.22;4.70;;;;;;;;;;5074876;28;20031;-76
2023/05/21 01:23:18;;;;;;;6.88;4.53;;;;;;;;;;5054469;28;20436;-76
2023/05/21 01:25:45;;;;;;;6.55;4.47;;;;;;;;;;5076148;28;20044;-76
2023/05/21 01:28:11;;;;;;;8.85;4.88;;;;;;;;;;5077316;28;20634;-76
2023/05/21 01:30:43;;;;;;;8.57;4.97;;;;;;;;;;5077923;28;20063;-76
2023/05/21 01:33:26;;;;;;;6.55;5.22;;;;;;;;;;5095318;28;20063;-76
2023/05/21 01:36:03;;;;;;;8.05;4.80;;;;;;;;;;5078089;28;20028;-76
2023/05/21 01:38:51;;;;;;;6.78;4.78;;;;;;;;;;5096006;28;20028;-76
2023/05/21 01:41:18;;;;;;;6.22;4.90;;;;;;;;;;5064322;28;20079;-76
2023/05/21 01:43:44;;;;;;;5.75;4.95;;;;;;;;;;5077129;28;20032;-76
2023/05/21 01:46:14;;;;;;;6.95;5.10;;;;;;;;;;5095423;28;20234;-76
2023/05/21 01:48:41;;;;;;;8.57;5.05;;;;;;;;;;5077425;28;20050;-76
2023/05/21 01:51:08;;;;;;;6.43;4.78;;;;;;;;;;5095510;28;20044;-76
2023/05/21 01:53:37;;;;;;;7.38;4.60;;;;;;;;;;5095196;28;20031;-76
2023/05/21 01:56:03;;;;;;;9.10;5.18;;;;;;;;;;5061451;28;20055;-76
2023/05/21 01:58:29;;;;;;;6.38;4.80;;;;;;;;;;5077077;28;20024;-76
2023/05/21 02:00:55;;;;;;;6.82;4.70;;;;;;;;;;5077633;28;20028;-76
2023/05/21 02:03:24;;;;;;;8.60;3.90;;;;;;;;;;5076870;28;20032;-76
2023/05/21 02:05:50;;;;;;;6.63;4.65;;;;;;;;;;5077182;28;20032;-76
2023/05/21 02:08:18;;;;;;;5.25;4.75;;;;;;;;;;5077144;28;20024;-76
2023/05/21 02:10:55;;;;;;;7.78;5.07;;;;;;;;;;5076885;28;20024;-76
2023/05/21 02:13:24;;;;;;;5.35;4.85;;;;;;;;;;5096689;28;20028;-79
2023/05/21 02:15:53;;;;;;;6.18;5.05;;;;;;;;;;5079235;28;20032;-78
2023/05/21 02:18:20;;;;;;;7.18;4.90;;;;;;;;;;5069822;28;20048;-78
2023/05/21 02:20:46;;;;;;;8.88;5.80;;;;;;;;;;5077151;28;20027;-78
2023/05/21 02:23:13;;;;;;;6.70;4.85;;;;;;;;;;5079525;28;20032;-78
2023/05/21 02:25:39;;;;;;;7.68;4.95;;;;;;;;;;5076462;28;20072;-79
2023/05/21 02:28:05;;;;;;;7.22;4.13;;;;;;;;;;5076564;28;20028;-79
2023/05/21 02:30:31;;;;;;;8.95;5.05;;;;;;;;;;5079169;28;20029;-79
2023/05/21 02:32:57;;;;;;;5.18;4.38;;;;;;;;;;5077178;28;20455;-79
2023/05/21 02:35:25;;;;;;;6.25;4.30;;;;;;;;;;5077272;28;20024;-79
2023/05/21 02:37:51;;;;;;;7.88;5.40;;;;;;;;;;5060142;28;20043;-79
2023/05/21 02:40:18;;;;;;;6.10;4.75;;;;;;;;;;5078143;28;20020;-78
2023/05/21 02:42:48;;;;;;;5.82;4.35;;;;;;;;;;5078001;28;20041;-79
2023/05/21 02:45:14;;;;;;;;;;;;;;;;;;5077194;28;20351;-78
2023/05/21 02:47:40;;;;;;;6.80;4.68;;;;;;;;;;5076672;28;19911;-78
2023/05/21 02:50:07;;;;;;;9.23;4.95;;;;;;;;;;5076272;28;20028;-79
2023/05/21 02:52:33;;;;;;;5.53;4.50;;;;;;;;;;5055749;28;20530;-78
2023/05/21 02:55:09;;;;;;;7.18;4.57;;;;;;;;;;5068752;28;20021;-79
2023/05/21 02:57:35;;;;;;;9.20;5.40;;;;;;;;;;5072182;28;20075;-78
2023/05/21 03:00:02;;;;;;;8.57;5.30;;;;;;;;;;5071068;28;20032;-79
2023/05/21 03:02:28;;;;;;;6.95;5.10;;;;;;;;;;5076149;28;20036;-79
2023/05/21 03:04:54;;;;;;;7.63;4.90;;;;;;;;;;5075390;28;20039;-78
2023/05/21 03:07:21;;;;;;;6.50;5.10;;;;;;;;;;5068287;28;20025;-78
2023/05/21 03:09:47;;;;;;;6.70;5.53;;;;;;;;;;5070772;28;20471;-79
2023/05/21 03:12:13;;;;;;;7.97;5.13;;;;;;;;;;5075120;28;20056;-78
2023/05/21 03:14:41;;;;;;;8.00;5.57;;;;;;;;;;5075325;28;20028;-78
2023/05/21 03:17:07;;;;;;;9.50;5.55;;;;;;;;;;5067195;28;20031;-78
2023/05/21 03:19:34;;;;;;;7.65;5.15;;;;;;;;;;5071148;28;20119;-78
2023/05/21 03:22:01;;;;;;;5.57;3.95;;;;;;;;;;5074575;28;20567;-79
2023/05/21 03:24:29;;;;;;;8.25;6.55;;;;;;;;;;5075137;28;20332;-78
2023/05/21 03:26:55;;;;;;;8.10;5.47;;;;;;;;;;5074852;28;20478;-78
2023/05/21 03:29:21;;;;;;;11.57;5.65;;;;;;;;;;5075111;28;20452;-79
2023/05/21 03:31:47;;;;;;;10.05;6.07;;;;;;;;;;5075263;28;20104;-79
2023/05/21 03:34:13;;;;;;;13.73;6.22;;;;;;;;;;5075013;28;20589;-79
2023/05/21 03:36:39;;;;;;;10.05;5.93;;;;;;;;;;5064462;28;20523;-79
2023/05/21 03:39:06;;;;;;;8.98;4.82;;;;;;;;;;5074310;28;20116;-78
2023/05/21 03:41:32;;;;;;;9.52;5.43;;;;;;;;;;5071515;28;20048;-78
2023/05/21 03:43:58;;;;;;;10.13;5.70;;;;;;;;;;5068510;28;20037;-79
2023/05/21 03:46:25;;;;;;;9.32;5.60;;;;;;;;;;5066709;28;20021;-78
2023/05/21 03:48:51;;;;;;;8.63;5.80;;;;;;;;;;5074574;28;20610;-79
2023/05/21 03:51:17;;;;;;;10.00;6.03;;;;;;;;;;5074478;28;20025;-78
2023/05/21 03:53:43;;;;;;;8.57;6.05;;;;;;;;;;5067936;28;20033;-78
2023/05/21 03:56:09;;;;;;;9.18;5.57;;;;;;;;;;5063736;28;20021;-79
2023/05/21 03:58:35;;;;;;;11.32;5.97;;;;;;;;;;5073101;28;20026;-78
2023/05/21 04:01:03;;;;;;;10.65;5.47;;;;;;;;;;5074679;28;20059;-79
2023/05/21 04:03:29;;;;;;;9.85;5.57;;;;;;;;;;5061084;28;20115;-78
2023/05/21 04:05:55;;;;;;;10.23;6.05;;;;;;;;;;5072545;28;20052;-79
2023/05/21 04:08:22;;;;;;;11.38;5.50;;;;;;;;;;5074101;28;20074;-79
2023/05/21 04:10:48;;;;;;;10.25;5.32;;;;;;;;;;5074465;28;20064;-78
2023/05/21 04:13:14;;;;;;;10.77;5.53;;;;;;;;;;5065859;28;20059;-78
2023/05/21 04:15:42;;;;;;;12.35;5.60;;;;;;;;;;5067930;28;20056;-79
2023/05/21 04:18:09;;;;;;;9.93;5.40;;;;;;;;;;5073310;28;20048;-78
2023/05/21 04:20:44;;;;;;;9.25;5.82;;;;;;;;;;5064539;28;20087;-78
2023/05/21 04:23:11;;;;;;;10.55;4.70;;;;;;;;;;5072511;28;20047;-78
2023/05/21 04:25:39;;;;;;;9.15;4.45;;;;;;;;;;5074433;28;20738;-79
2023/05/21 04:28:05;;;;;;;11.65;5.45;;;;;;;;;;5081006;28;20043;-79
2023/05/21 04:30:34;;;;;;;8.82;5.22;;;;;;;;;;5078908;28;20031;-79
2023/05/21 04:33:00;;;;;;;12.20;5.47;;;;;;;;;;5096197;28;20024;-79
2023/05/21 04:35:26;;;;;;;12.45;5.13;;;;;;;;;;5079525;28;20443;-79
2023/05/21 04:37:53;;;;;;;10.50;5.53;;;;;;;;;;5081598;28;20479;-79
2023/05/21 04:40:23;;;;;;;13.77;5.88;;;;;;;;;;5075649;28;20481;-76
2023/05/21 04:42:49;;;;;;;10.27;5.03;;;;;;;;;;5074588;28;20038;-76
2023/05/21 04:45:16;;;;;;;10.68;5.40;;;;;;;;;;5074381;28;20285;-76
2023/05/21 04:47:42;;;;;;;9.70;4.60;;;;;;;;;;5074670;28;20052;-78
2023/05/21 04:50:12;;;;;;;9.43;4.82;;;;;;;;;;5076188;28;20460;-78
2023/05/21 04:52:39;;;;;;;8.52;4.97;;;;;;;;;;5077797;28;20024;-78
2023/05/21 04:55:05;;;;;;;10.25;4.97;;;;;;;;;;5075884;28;20031;-78
2023/05/21 04:57:31;;;;;;;6.68;4.35;;;;;;;;;;5077430;28;20020;-78
2023/05/21 04:59:57;;;;;;;12.90;4.97;;;;;;;;;;5096718;28;20415;-78
2023/05/21 05:02:24;;;;;;;8.15;4.03;;;;;;;;;;5074832;28;20044;-78
2023/05/21 05:04:50;;;;;;;10.30;4.32;;;;;;;;;;5088415;28;20089;-78
2023/05/21 05:07:16;;;;;;;7.55;4.63;;;;;;;;;;5076681;28;20055;-78
2023/05/21 05:09:42;;;;;;;6.75;3.78;;;;;;;;;;5095456;28;20035;-78
2023/05/21 05:12:08;;;;;;;8.63;4.47;;;;;;;;;;5083133;28;20032;-78
2023/05/21 05:14:34;;;;;;;9.10;4.00;;;;;;;;;;5078906;28;20047;-78
2023/05/21 05:17:00;;;;;;;8.35;4.63;;;;;;;;;;5078590;28;20020;-78
2023/05/21 05:19:26;;;;;;;7.35;4.15;;;;;;;;;;5077860;28;20035;-78
2023/05/21 05:21:52;;;;;;;8.65;4.40;;;;;;;;;;5075970;28;20495;-78
2023/05/21 05:24:18;;;;;;;9.27;4.15;;;;;;;;;;5075566;28;20055;-78
2023/05/21 05:26:44;;;;;;;7.10;3.70;;;;;;;;;;5073002;28;20036;-78
2023/05/21 05:29:10;;;;;;;9.25;4.38;;;;;;;;;;5072714;28;20025;-78
2023/05/21 05:31:36;;;;;;;8.27;4.00;;;;;;;;;;5073586;28;20039;-78
2023/05/21 05:34:03;;;;;;;8.48;3.53;;;;;;;;;;5075361;28;20090;-78
2023/05/21 05:36:32;;;;;;;3.60;3.10;;;;;;;;;;5063095;28;20029;-79
2023/05/21 05:38:58;;;;;;;9.57;3.97;;;;;;;;;;5069927;28;20496;-78
2023/05/21 05:41:25;;;;;;;7.32;3.70;;;;;;;;;;5074744;28;20028;-78
2023/05/21 05:43:52;;;;;;;9.20;4.07;;;;;;;;;;5072729;28;20027;-78
2023/05/21 05:46:18;;;;;;;10.65;3.97;;;;;;;;;;5056025;28;20380;-78
2023/05/21 05:48:45;;;;;;;5.75;2.75;;;;;;;;;;5071185;28;20017;-78
2023/05/21 05:51:11;;;;;;;7.25;3.10;;;;;;;;;;5071941;28;20037;-78
2023/05/21 05:53:37;;;;;;;8.68;4.25;;;;;;;;;;5072340;28;20037;-78
2023/05/21 05:56:04;;;;;;;7.47;3.85;;;;;;;;;;5075103;28;20024;-78
2023/05/21 05:58:30;;;;;;;7.72;4.10;;;;;;;;;;5073646;28;20036;-78
2023/05/21 06:01:01;;;;;;;8.68;3.97;;;;;;;;;;5073771;28;20028;-78
2023/05/21 06:03:35;;;;;;;5.32;3.40;;;;;;;;;;5078717;28;20058;-79
2023/05/21 06:06:07;;;;;;;7.93;4.40;;;;;;;;;;5083697;28;20452;-78
2023/05/21 06:08:33;;;;;;;9.18;4.50;;;;;;;;;;5075069;28;20099;-78
2023/05/21 06:10:59;;;;;;;10.70;4.78;;;;;;;;;;5080463;28;20443;-78
2023/05/21 06:13:30;;;;;;;9.55;3.95;;;;;;;;;;5059444;28;20147;-78
2023/05/21 06:16:18;;;;;;;6.75;3.83;;;;;;;;;;5090858;28;20016;-78
2023/05/21 06:18:46;;;;;;;7.95;4.63;;;;;;;;;;5079805;28;20380;-78
2023/05/21 06:21:14;;;;;;;6.53;4.03;;;;;;;;;;5074289;28;20025;-77
2023/05/21 06:23:40;;;;;;;7.43;4.38;;;;;;;;;;5072839;28;20043;-77
2023/05/21 06:26:25;;;;;;;7.43;4.68;;;;;;;;;;5052656;28;20076;-77
2023/05/21 06:28:52;;;;;;;7.70;3.88;;;;;;;;;;5053864;28;20060;-77
2023/05/21 06:31:21;;;;;;;7.38;4.45;;;;;;;;;;5070066;28;20047;-77
2023/05/21 06:33:48;;;;;;;9.52;4.90;;;;;;;;;;5074335;28;20028;-78
2023/05/21 06:36:14;;;;;;;5.88;3.47;;;;;;;;;;5075080;28;20581;-77
2023/05/21 06:38:46;;;;;;;6.93;4.03;;;;;;;;;;5073853;28;20021;-77
2023/05/21 06:41:12;;;;;;;8.18;4.43;;;;;;;;;;5072679;28;20089;-77
2023/05/21 06:43:38;;;;;;;6.85;3.70;;;;;;;;;;5071950;28;20614;-77
2023/05/21 06:46:04;;;;;;;6.85;3.10;;;;;;;;;;5062466;28;20059;-77
2023/05/21 06:48:31;;;;;;;9.77;4.57;;;;;;;;;;5052437;28;20472;-77
2023/05/21 06:50:57;;;;;;;9.32;4.40;;;;;;;;;;5068646;28;20029;-77
2023/05/21 06:53:23;;;;;;;6.72;3.90;;;;;;;;;;5075461;28;20093;-77
2023/05/21 06:55:52;;;;;;;5.90;3.22;;;;;;;;;;5092839;28;20021;-77
2023/05/21 06:58:18;;;;;;;10.82;3.70;;;;;;;;;;5094110;28;20016;-77
2023/05/21 07:00:44;;;;;;;8.98;3.85;;;;;;;;;;5093769;28;20516;-77
2023/05/21 07:03:10;;;;;;;7.35;3.95;;;;;;;;;;5093461;28;20037;-77
2023/05/21 07:05:36;;;;;;;8.23;4.88;;;;;;;;;;5092618;28;20074;-77
2023/05/21 07:08:02;;;;;;;5.65;2.67;;;;;;;;;;5068988;28;20032;-76
2023/05/21 07:10:30;;;;;;;7.85;4.43;;;;;;;;;;5073721;28;20070;-76
2023/05/21 07:12:56;;;;;;;7.72;4.00;;;;;;;;;;5071951;28;20064;-77
2023/05/21 07:15:22;;;;;;;8.50;3.90;;;;;;;;;;5072079;28;20502;-77
2023/05/21 07:17:49;;;;;;;8.55;4.18;;;;;;;;;;5073407;28;20052;-77
2023/05/21 07:20:15;;;;;;;7.53;3.60;;;;;;;;;;5072284;28;20053;-77
2023/05/21 07:22:41;;;;;;;7.95;4.38;;;;;;;;;;5073075;28;20039;-77
2023/05/21 07:25:08;;;;;;;10.48;4.30;;;;;;;;;;5071987;28;20020;-78
2023/05/21 07:27:34;;;;;;;9.43;4.45;;;;;;;;;;5089425;28;20063;-77
2023/05/21 07:30:00;;;;;;;10.23;4.97;;;;;;;;;;5093825;28;20028;-77
2023/05/21 07:32:27;;;;;;;6.82;4.53;;;;;;;;;;5093591;28;20024;-78
2023/05/21 07:34:53;;;;;;;10.00;5.00;;;;;;;;;;5093830;28;20020;-78
2023/05/21 07:37:26;;;;;;;6.43;3.92;;;;;;;;;;5093541;28;20028;-78
2023/05/21 07:39:54;;;;;;;9.73;4.35;;;;;;;;;;5085966;28;20020;-78
2023/05/21 07:42:20;;;;;;;7.93;4.53;;;;;;;;;;5093457;28;20518;-78
2023/05/21 07:44:46;;;;;;;7.57;3.17;;;;;;;;;;5094193;28;20099;-78
2023/05/21 07:47:12;;;;;;;6.78;4.40;;;;;;;;;;5092943;28;20402;-78
2023/05/21 07:49:38;;;;;;;6.10;4.07;;;;;;;;;;5093110;28;20034;-78
2023/05/21 07:52:04;;;;;;;6.82;4.35;;;;;;;;;;5093380;28;20032;-78
2023/05/21 07:54:30;;;;;;;4.22;2.72;;;;;;;;;;5092959;28;20020;-78
2023/05/21 07:56:56;;;;;;;6.95;4.00;;;;;;;;;;5093685;28;20024;-78
2023/05/21 07:59:22;;;;;;;6.65;3.92;;;;;;;;;;5093100;28;20099;-78
2023/05/21 08:01:48;;;;;;;6.93;3.38;;;;;;;;;;5093019;28;20074;-78
2023/05/21 08:04:14;;;;;;;5.45;3.83;;;;;;;;;;5074702;28;20090;-78
2023/05/21 08:06:40;;;;;;;5.50;3.03;;;;;;;;;;5092958;28;20103;-78
2023/05/21 08:09:06;;;;;;;5.72;4.13;;;;;;;;;;5093201;28;20550;-78
2023/05/21 08:11:32;;;;;;;7.65;4.38;;;;;;;;;;5093920;28;20024;-78
2023/05/21 08:13:58;;;;;;;6.57;3.70;;;;;;;;;;5093066;28;20032;-78
2023/05/21 08:16:24;;;;;;;7.20;4.53;;;;;;;;;;5093263;28;20020;-78
2023/05/21 08:18:51;;;;;;;7.95;4.13;;;;;;;;;;5092648;28;20056;-77
2023/05/21 08:21:17;;;;;;;4.70;3.42;;;;;;;;;;5074930;28;20564;-78
2023/05/21 08:23:43;;;;;;;5.85;4.25;;;;;;;;;;5092721;28;20036;-77
2023/05/21 08:26:09;;;;;;;8.38;4.93;;;;;;;;;;5090798;28;20055;-77
2023/05/21 08:28:37;;;;;;;8.50;5.20;;;;;;;;;;5074409;28;20112;-77
2023/05/21 08:31:03;;;;;;;4.90;3.60;;;;;;;;;;5078551;28;20035;-77
2023/05/21 08:33:29;;;;;;;6.32;4.00;;;;;;;;;;5093117;28;20024;-77
2023/05/21 08:35:55;;;;;;;5.43;3.90;;;;;;;;;;5074166;28;20031;-77
2023/05/21 08:38:21;;;;;;;7.22;4.55;;;;;;;;;;5092628;28;20024;-78
2023/05/21 08:40:50;;;;;;;6.22;4.85;;;;;;;;;;5093844;28;20058;-77
2023/05/21 08:43:17;;;;;;;7.10;3.80;;;;;;;;;;5092458;28;20047;-78
2023/05/21 08:45:49;;;;;;;5.55;4.05;;;;;;;;;;5092681;28;20030;-77
2023/05/21 08:48:16;;;;;;;7.40;4.80;;;;;;;;;;5092327;28;20020;-77
2023/05/21 08:50:42;;;;;;;7.60;4.25;;;;;;;;;;5092245;28;20020;-78
2023/05/21 08:53:08;;;;;;;5.88;4.20;;;;;;;;;;5092410;28;20032;-77
2023/05/21 08:55:34;;;;;;;6.13;3.80;;;;;;;;;;5092294;28;20024;-78
2023/05/21 08:58:03;;;;;;;6.18;3.55;;;;;;;;;;5092083;28;20016;-78
2023/05/21 09:00:30;;;;;;;5.10;3.92;;;;;;;;;;5092962;28;20055;-78
2023/05/21 09:02:59;;;;;;;6.63;4.53;;;;;;;;;;5075661;28;20039;-78
2023/05/21 09:05:26;;;;;;;10.50;3.47;;;;;;;;;;5092903;28;20016;-78
2023/05/21 09:08:01;;;;;;;5.93;3.58;;;;;;;;;;5092654;28;20032;-77
2023/05/21 09:10:30;;;;;;;6.13;3.22;;;;;;;;;;5093331;28;20020;-77
2023/05/21 09:12:56;;;;;;;4.95;4.43;;;;;;;;;;5093545;28;20107;-77
2023/05/21 09:15:22;;;;;;;5.68;3.45;;;;;;;;;;5094011;28;20078;-78
2023/05/21 09:17:48;;;;;;;5.40;3.42;;;;;;;;;;5075152;28;20110;-77
2023/05/21 09:20:15;;;;;;;5.30;3.50;;;;;;;;;;5092318;28;20497;-77
2023/05/21 09:22:42;;;;;;;5.70;3.63;;;;;;;;;;5073129;28;20028;-77
2023/05/21 09:25:09;;;;;;;7.25;3.25;;;;;;;;;;5073684;28;20024;-77
2023/05/21 09:27:36;;;;;;;5.57;3.45;;;;;;;;;;5091513;28;20129;-77
2023/05/21 09:30:03;;;;;;;6.00;3.45;;;;;;;;;;5065138;28;20078;-78
2023/05/21 09:32:30;;;;;;;3.13;2.67;;;;;;;;;;5072683;28;20479;-78
2023/05/21 09:34:56;;;;;;;7.18;3.75;;;;;;;;;;5065541;28;20020;-77
2023/05/21 09:37:22;;;;;;;5.45;3.58;;;;;;;;;;5095166;28;20319;-78
2023/05/21 09:39:48;;;;;;;6.03;2.88;;;;;;;;;;5099374;28;20044;-78
2023/05/21 09:42:15;;;;;;;6.53;3.60;;;;;;;;;;5080693;28;20043;-78
2023/05/21 09:44:44;;;;;;;7.95;3.28;;;;;;;;;;5080217;28;20028;-78
2023/05/21 09:47:10;;;;;;;5.78;3.50;;;;;;;;;;5096608;28;20024;-78
2023/05/21 09:49:37;;;;;;;4.95;3.13;;;;;;;;;;5097744;28;20021;-78
2023/05/21 09:52:03;;;;;;;5.78;2.95;;;;;;;;;;5096143;28;20031;-77
2023/05/21 09:54:33;;;;;;;5.28;3.33;;;;;;;;;;5096249;28;20157;-77
2023/05/21 09:57:02;;;;;;;5.15;2.78;;;;;;;;;;5097989;28;20031;-77
2023/05/21 09:59:41;;;;;;;4.13;3.55;;;;;;;;;;5098157;28;20024;-78
2023/05/21 10:02:20;;;;;;;5.10;3.08;;;;;;;;;;5091716;28;20029;-78
2023/05/21 10:04:48;;;;;;;6.10;3.30;;;;;;;;;;5093402;28;20053;-78
2023/05/21 10:07:17;;;;;;;4.07;2.72;;;;;;;;;;5101134;28;20047;-78
2023/05/21 10:09:44;;;;;;;4.33;2.93;;;;;;;;;;5102213;28;20024;-78
2023/05/21 10:12:10;;;;;;;4.40;2.38;;;;;;;;;;5098995;28;20099;-78
2023/05/21 10:14:36;;;;;;;3.53;2.33;;;;;;;;;;5103385;28;20030;-78
2023/05/21 10:17:02;;;;;;;4.22;2.75;;;;;;;;;;5102919;28;20029;-78
2023/05/21 10:19:30;;;;;;;4.28;3.30;;;;;;;;;;5098508;28;20008;-78
2023/05/21 10:21:56;;;;;;;5.70;2.22;;;;;;;;;;5100493;28;20075;-79
2023/05/21 10:24:23;;;;;;;4.38;2.75;;;;;;;;;;5104541;28;20070;-78
2023/05/21 10:26:49;;;;;;;5.75;2.58;;;;;;;;;;5105397;28;20048;-78
2023/05/21 10:29:25;;;;;;;5.68;2.47;;;;;;;;;;5104783;28;20381;-79
2023/05/21 10:31:52;;;;;;;5.05;3.00;;;;;;;;;;5102590;28;20032;-78
2023/05/21 10:34:18;;;;;;;6.78;2.67;;;;;;;;;;5101934;28;20050;-78
2023/05/21 10:36:45;;;;;;;4.28;2.85;;;;;;;;;;5108716;28;20474;-79
2023/05/21 10:39:12;;;;;;;2.90;2.30;;;;;;;;;;5107796;28;20097;-79
2023/05/21 10:41:46;;;;;;;4.32;2.42;;;;;;;;;;5099788;28;20084;-79
2023/05/21 10:44:43;;;;;;;3.83;3.00;;;;;;;;;;5103386;28;20081;-78
2023/05/21 10:47:24;;;;;;;3.22;2.60;;;;;;;;;;5095457;28;20116;-79
2023/05/21 10:50:08;;;;;;;5.60;3.05;;;;;;;;;;5096046;28;20569;-78
2023/05/21 10:52:50;;;;;;;5.25;2.95;;;;;;;;;;5106305;28;20035;-79
2023/05/21 10:55:16;;;;;;;3.83;2.65;;;;;;;;;;5103834;28;20046;-79
2023/05/21 10:57:48;;;;;;;6.45;3.20;;;;;;;;;;5089769;28;20028;-78
2023/05/21 11:00:15;;;;;;;6.60;3.53;;;;;;;;;;5109184;28;20044;-78
2023/05/21 11:02:42;;;;;;;9.88;3.22;;;;;;;;;;5105733;28;20061;-78
2023/05/21 11:05:08;;;;;;;8.27;3.72;;;;;;;;;;5102666;28;20024;-78
2023/05/21 11:07:52;;;;;;;5.20;3.38;;;;;;;;;;5106907;28;20102;-79
2023/05/21 11:10:31;;;;;;;3.20;2.35;;;;;;;;;;5114183;28;20039;-78
2023/05/21 11:13:14;;;;;;;4.28;2.35;;;;;;;;;;5108135;28;20459;-79
2023/05/21 11:16:01;;;;;;;2.92;2.30;;;;;;;;;;5105911;28;20028;-79
2023/05/21 11:18:30;;;;;;;6.50;2.78;;;;;;;;;;5096403;28;20043;-78
2023/05/21 11:21:05;;;;;;;6.57;2.25;;;;;;;;;;5109788;28;20024;-78
2023/05/21 11:23:50;;;;;;;3.75;2.10;;;;;;;;;;5108735;28;20032;-79
2023/05/21 11:26:29;;;;;;;3.95;2.40;;;;;;;;;;5099756;28;20418;-79
2023/05/21 11:29:04;;;;;;;4.85;2.65;;;;;;;;;;5080311;28;20059;-78
2023/05/21 11:31:37;;;;;;;2.83;2.08;;;;;;;;;;5097361;28;20031;-78
2023/05/21 11:34:15;;;;;;;4.85;2.55;;;;;;;;;;5093939;28;20079;-79
2023/05/21 11:36:42;;;;;;;3.92;2.10;;;;;;;;;;5097537;28;20086;-79
2023/05/21 11:39:09;;;;;;;5.07;2.45;;;;;;;;;;5096569;28;20131;-78
2023/05/21 11:41:54;;;;;;;5.93;2.40;;;;;;;;;;5101043;28;20016;-78
2023/05/21 11:44:39;;;;;;;2.63;2.22;;;;;;;;;;5101272;28;20024;-78
2023/05/21 11:47:06;;;;;;;4.88;2.60;;;;;;;;;;5106596;28;20066;-78
2023/05/21 11:49:32;;;;;;;4.35;2.47;;;;;;;;;;5098549;28;20017;-79
2023/05/21 11:51:59;;;;;;;5.35;2.05;;;;;;;;;;5094870;28;20115;-79
2023/05/21 11:54:25;;;;;;;7.22;3.03;;;;;;;;;;5100031;28;20055;-78
2023/05/21 11:56:52;;;;;;;4.22;2.65;;;;;;;;;;5093783;28;20048;-78
2023/05/21 11:59:18;;;;;;;6.35;3.83;;;;;;;;;;5074085;28;20035;-78
2023/05/21 12:01:44;;;;;;;4.82;3.13;;;;;;;;;;5078458;28;20111;-78
2023/05/21 12:04:13;;;;;;;9.00;2.95;;;;;;;;;;5094955;28;20439;-78
2023/05/21 12:06:44;;;;;;;3.17;2.63;;;;;;;;;;5094181;28;20012;-78
2023/05/21 12:09:10;;;;;;;5.07;3.15;;;;;;;;;;5093698;28;20249;-78
2023/05/21 12:11:40;;;;;;;5.80;2.67;;;;;;;;;;5091445;28;20028;-78
2023/05/21 12:14:08;;;;;;;5.57;2.83;;;;;;;;;;5084391;28;20370;-78
2023/05/21 12:16:34;;;;;;;5.20;3.10;;;;;;;;;;5096827;28;20031;-78
2023/05/21 12:19:00;;;;;;;8.02;3.83;;;;;;;;;;5101332;28;20016;-78
2023/05/21 12:21:30;;;;;;;6.40;3.35;;;;;;;;;;5102870;28;20035;-78
2023/05/21 12:23:56;;;;;;;5.40;3.30;;;;;;;;;;5101785;28;20078;-78
2023/05/21 12:26:24;;;;;;;5.13;2.95;;;;;;;;;;5098067;28;20089;-78
2023/05/21 12:28:51;;;;;;;7.68;3.80;;;;;;;;;;5094944;28;20091;-78
2023/05/21 12:31:17;;;;;;;5.47;3.17;;;;;;;;;;5094922;28;20514;-78
2023/05/21 12:33:46;;;;;;;6.38;2.67;;;;;;;;;;5098700;28;20036;-78
2023/05/21 12:36:21;;;;;;;4.75;2.90;;;;;;;;;;5077022;28;20459;-78
2023/05/21 12:38:47;;;;;;;7.07;3.35;;;;;;;;;;5101071;28;20016;-78
2023/05/21 12:41:13;;;;;;;6.93;3.38;;;;;;;;;;5112325;28;20115;-79
2023/05/21 12:43:39;;;;;;;5.63;2.45;;;;;;;;;;5101036;28;20085;-79
2023/05/21 12:46:05;;;;;;;4.35;3.08;;;;;;;;;;5079604;28;20119;-79
2023/05/21 12:48:32;;;;;;;5.20;3.08;;;;;;;;;;5098772;28;20105;-78
2023/05/21 12:50:58;;;;;;;5.10;3.20;;;;;;;;;;5097931;28;20497;-79
2023/05/21 12:53:24;;;;;;;5.13;2.72;;;;;;;;;;5094549;28;20034;-79
2023/05/21 12:55:55;;;;;;;6.82;3.10;;;;;;;;;;5095248;28;20031;-79
2023/05/21 12:58:21;;;;;;;7.68;3.50;;;;;;;;;;5097033;28;20048;-79
2023/05/21 13:00:47;;;;;;;6.03;3.03;;;;;;;;;;5097603;28;20016;-78
2023/05/21 13:03:13;;;;;;;5.35;2.55;;;;;;;;;;5104915;28;20032;-78
2023/05/21 13:05:40;;;;;;;6.38;2.70;;;;;;;;;;5096061;28;20024;-78
2023/05/21 13:08:09;;;;;;;6.05;3.10;;;;;;;;;;5095636;28;20073;-79
2023/05/21 13:10:35;;;;;;;4.38;3.30;;;;;;;;;;5095806;28;20017;-79
2023/05/21 13:13:01;;;;;;;5.22;2.47;;;;;;;;;;5098045;28;20024;-78
2023/05/21 13:15:27;;;;;;;8.27;2.63;;;;;;;;;;5096659;28;20043;-78
2023/05/21 13:17:53;;;;;;;6.63;2.90;;;;;;;;;;5099045;28;20394;-78
2023/05/21 13:20:20;;;;;;;8.07;3.22;;;;;;;;;;5099905;28;20016;-78
2023/05/21 13:22:47;;;;;;;4.45;2.83;;;;;;;;;;5080350;28;20055;-78
2023/05/21 13:25:14;;;;;;;5.40;3.22;;;;;;;;;;5098117;28;20035;-78
2023/05/21 13:27:40;;;;;;;8.43;4.18;;;;;;;;;;5093685;28;20441;-78
2023/05/21 13:30:07;;;;;;;6.85;3.95;;;;;;;;;;5091419;28;20032;-78
2023/05/21 13:32:33;;;;;;;8.00;4.15;;;;;;;;;;5097110;28;20439;-77
2023/05/21 13:34:59;;;;;;;5.80;3.75;;;;;;;;;;5095422;28;20035;-77
2023/05/21 13:37:25;;;;;;;5.95;4.32;;;;;;;;;;5095601;28;20103;-78
2023/05/21 13:39:51;;;;;;;6.65;3.67;;;;;;;;;;5095616;28;20124;-78
2023/05/21 13:42:18;;;;;;;8.75;5.03;;;;;;;;;;5095506;28;20020;-78
2023/05/21 13:44:44;;;;;;;6.80;4.18;;;;;;;;;;5078101;28;20020;-78
2023/05/21 13:47:10;;;;;;;7.50;4.68;;;;;;;;;;5076053;28;20418;-77
2023/05/21 13:49:36;;;;;;;9.52;4.47;;;;;;;;;;5095327;28;20048;-78
2023/05/21 13:52:03;;;;;;;7.72;4.60;;;;;;;;;;5095575;28;20032;-78
2023/05/21 13:54:29;;;;;;;4.38;3.80;;;;;;;;;;5095547;28;20031;-78
2023/05/21 13:56:55;;;;;;;9.90;4.85;;;;;;;;;;5095236;28;20063;-78
2023/05/21 13:59:21;;;;;;;6.15;4.28;;;;;;;;;;5095421;28;20110;-77
2023/05/21 14:01:48;;;;;;;7.53;5.10;;;;;;;;;;5095276;28;20028;-77
2023/05/21 14:04:14;;;;;;;7.70;5.65;;;;;;;;;;5094822;28;20020;-77
2023/05/21 14:06:40;;;;;;;6.53;4.65;;;;;;;;;;5095341;28;20027;-78
2023/05/21 14:09:06;;;;;;;9.05;4.60;;;;;;;;;;5076378;28;20024;-77
2023/05/21 14:11:33;;;;;;;4.72;3.13;;;;;;;;;;5085846;28;20051;-78
2023/05/21 14:13:59;;;;;;;10.85;5.40;;;;;;;;;;5075180;28;20024;-78
2023/05/21 14:16:26;;;;;;;9.20;5.90;;;;;;;;;;5075225;28;20048;-78
2023/05/21 14:18:58;;;;;;;12.68;5.45;;;;;;;;;;5081677;28;20017;-78
2023/05/21 14:21:25;;;;;;;10.85;6.70;;;;;;;;;;5094705;28;20039;-78
2023/05/21 14:23:51;;;;;;;9.43;6.07;;;;;;;;;;5094051;28;20024;-78
2023/05/21 14:26:17;;;;;;;12.85;5.88;;;;;;;;;;5091679;28;20040;-78
2023/05/21 14:28:45;;;;;;;10.40;7.40;;;;;;;;;;5074990;28;20048;-78
2023/05/21 14:31:11;;;;;;;8.38;5.55;;;;;;;;;;5095254;28;20024;-78
2023/05/21 14:33:37;;;;;;;10.85;6.70;;;;;;;;;;5096478;28;20504;-78
2023/05/21 14:36:04;;;;;;;14.00;7.60;;;;;;;;;;5097118;28;20078;-78
2023/05/21 14:38:30;;;;;;;12.07;6.05;;;;;;;;;;5098882;28;20069;-78
2023/05/21 14:40:56;;;;;;;11.85;6.38;;;;;;;;;;5100179;28;20028;-78
2023/05/21 14:43:22;;;;;;;12.80;8.75;;;;;;;;;;5097434;28;20090;-78
2023/05/21 14:45:49;;;;;;;9.48;6.25;;;;;;;;;;5094533;28;20046;-80
2023/05/21 14:48:17;;;;;;;13.63;8.70;;;;;;;;;;5094486;28;20024;-79